Time;durP1;ratioP1;P1;durP2;ratioP2;P2;SDS_P1;SDS_P2;PMS_P1;PMS_P2;Temp;Humidity;BMP_temperature;BMP_pressure;BME280_temperature;BME280_humidity;BME280_pressure;Samples;Min_cycle;Max_cycle;Signal;HPM_P1;HPM_P2
2022/08/12 00:44:51;;;;;;;13.20;11.90;;;17.60;99.90;;;;;;4974531;28;20059;-52
2022/08/12 00:47:18;;;;;;;13.23;11.40;;;17.60;99.90;;;;;;4958432;28;20100;-50
2022/08/12 00:49:45;;;;;;;12.70;11.32;;;17.60;99.90;;;;;;4962403;28;20537;-53
2022/08/12 00:52:12;;;;;;;12.73;11.30;;;17.60;99.90;;;;;;4962569;28;20052;-53
2022/08/12 00:54:50;;;;;;;13.05;11.75;;;17.60;99.90;;;;;;4961032;28;20050;-50
2022/08/12 00:57:20;;;;;;;13.02;11.90;;;17.60;99.90;;;;;;4961750;28;20510;-52
2022/08/12 01:00:00;;;;;;;14.10;12.65;;;17.60;99.90;;;;;;4966813;28;20096;-51
2022/08/12 01:02:50;;;;;;;16.10;12.75;;;17.60;99.90;;;;;;4983476;28;20052;-51
2022/08/12 01:13:41;;;;;;;12.77;11.50;;;17.60;99.90;;;;;;4987799;28;20055;-51
2022/08/12 01:16:08;;;;;;;14.98;13.38;;;17.50;99.90;;;;;;4948818;28;20062;-49
2022/08/12 01:18:37;;;;;;;14.48;13.05;;;17.50;99.90;;;;;;4961525;28;20051;-50
2022/08/12 01:21:41;;;;;;;15.75;13.23;;;17.50;99.90;;;;;;4964881;28;20052;-52
2022/08/12 01:24:32;;;;;;;14.30;12.95;;;17.50;99.90;;;;;;4961489;28;20139;-51
2022/08/12 01:27:03;;;;;;;16.77;14.40;;;17.50;99.90;;;;;;4958244;28;20508;-50
2022/08/12 01:29:33;;;;;;;16.25;14.65;;;17.50;99.90;;;;;;4993871;28;20051;-53
2022/08/12 01:32:07;;;;;;;15.18;13.70;;;17.50;99.90;;;;;;4984732;28;20046;-53
2022/08/12 01:34:35;;;;;;;16.15;14.65;;;17.40;99.90;;;;;;4960191;28;20138;-50
2022/08/12 01:37:03;;;;;;;15.80;14.20;;;17.40;99.90;;;;;;4998927;28;20150;-54
2022/08/12 01:39:32;;;;;;;17.13;15.55;;;17.40;99.90;;;;;;4960009;28;20137;-52
2022/08/12 01:42:03;;;;;;;16.98;15.38;;;17.40;99.90;;;;;;4956537;28;20062;-50
2022/08/12 01:44:31;;;;;;;17.17;15.65;;;17.40;99.90;;;;;;4954671;28;20051;-54
2022/08/12 01:47:24;;;;;;;17.42;15.65;;;17.30;99.90;;;;;;4959577;28;20054;-51
2022/08/12 01:49:59;;;;;;;17.85;16.25;;;17.30;99.90;;;;;;4960950;28;20057;-53
2022/08/12 01:52:53;;;;;;;18.20;16.55;;;17.20;99.90;;;;;;4958079;28;20059;-54
2022/08/12 01:55:23;;;;;;;17.77;16.10;;;17.20;99.90;;;;;;4985751;28;20053;-54
2022/08/12 01:58:11;;;;;;;19.77;17.75;;;17.20;99.90;;;;;;4987671;28;20082;-51
2022/08/12 02:00:57;;;;;;;18.27;16.67;;;17.20;99.90;;;;;;4957488;28;20059;-49
2022/08/12 02:13:22;;;;;;;18.17;16.48;;;17.10;99.90;;;;;;4977672;28;20141;-50
2022/08/12 02:16:18;;;;;;;17.35;15.75;;;17.10;99.90;;;;;;4996423;28;20393;-51
2022/08/12 02:18:53;;;;;;;18.40;16.45;;;17.00;99.90;;;;;;4982116;28;20131;-48
2022/08/12 02:21:45;;;;;;;22.50;16.52;;;17.00;99.90;;;;;;4987104;28;20145;-54
2022/08/12 02:24:19;;;;;;;19.20;16.13;;;17.00;99.90;;;;;;4998651;28;20064;-53
2022/08/12 02:26:47;;;;;;;17.17;15.48;;;17.00;99.90;;;;;;4983338;28;20062;-52
2022/08/12 02:29:13;;;;;;;16.25;14.82;;;17.00;99.90;;;;;;4996847;28;20053;-51
2022/08/12 02:31:42;;;;;;;16.90;15.15;;;16.90;99.90;;;;;;5002276;28;20066;-50
2022/08/12 02:34:08;;;;;;;16.23;14.65;;;16.90;99.90;;;;;;5003240;28;20109;-50
2022/08/12 02:36:38;;;;;;;16.23;14.55;;;16.90;99.90;;;;;;5003759;28;20070;-49
2022/08/12 02:39:07;;;;;;;15.38;13.73;;;16.90;99.90;;;;;;4983084;28;20069;-53
2022/08/12 02:41:35;;;;;;;14.93;13.45;;;16.90;99.90;;;;;;5003896;28;20147;-53
2022/08/12 02:44:08;;;;;;;15.40;13.88;;;16.90;99.90;;;;;;5000773;28;20112;-52
2022/08/12 02:46:36;;;;;;;14.43;13.02;;;16.90;99.90;;;;;;5002844;28;20475;-52
2022/08/12 02:49:16;;;;;;;14.95;13.55;;;16.90;99.90;;;;;;5002536;28;20445;-52
2022/08/12 02:51:45;;;;;;;17.15;14.55;;;16.90;99.90;;;;;;4966149;28;20517;-52
2022/08/12 02:54:11;;;;;;;15.52;14.02;;;16.90;99.90;;;;;;4957472;28;20054;-54
2022/08/12 02:56:40;;;;;;;15.20;13.70;;;16.90;99.90;;;;;;4959175;28;20588;-52
2022/08/12 02:59:12;;;;;;;16.30;14.00;;;16.80;99.90;;;;;;4985506;28;20051;-53
2022/08/12 03:02:09;;;;;;;15.85;14.20;;;16.80;99.90;;;;;;4970750;28;20394;-53
2022/08/12 03:04:37;;;;;;;15.52;13.77;;;16.80;99.90;;;;;;4960796;28;20418;-50
2022/08/12 03:07:27;;;;;;;15.30;12.65;;;16.80;99.90;;;;;;4972985;28;20050;-53
2022/08/12 03:10:10;;;;;;;14.65;13.13;;;16.80;99.90;;;;;;4953206;28;20876;-51
2022/08/12 03:12:42;;;;;;;14.88;13.52;;;16.70;99.90;;;;;;4957398;28;20049;-55
2022/08/12 03:15:21;;;;;;;14.15;12.68;;;16.80;99.90;;;;;;4952537;28;20203;-55
2022/08/12 03:18:20;;;;;;;15.88;14.32;;;16.70;99.90;;;;;;4998297;28;20058;-53
2022/08/12 03:20:46;;;;;;;15.75;14.15;;;16.70;99.90;;;;;;4975551;28;20133;-53
2022/08/12 03:23:14;;;;;;;14.77;13.48;;;16.60;99.90;;;;;;4963674;28;20061;-50
2022/08/12 03:25:42;;;;;;;17.38;14.68;;;16.60;99.90;;;;;;4969499;28;20051;-50
2022/08/12 03:28:11;;;;;;;17.02;14.60;;;16.60;99.90;;;;;;5005745;28;20417;-51
2022/08/12 03:30:41;;;;;;;14.88;13.48;;;16.50;99.90;;;;;;4978674;28;20135;-49
2022/08/12 03:33:11;;;;;;;15.75;13.35;;;16.50;99.90;;;;;;4961853;28;20055;-54
2022/08/12 03:35:41;;;;;;;18.70;14.25;;;16.50;99.90;;;;;;4958487;28;20065;-50
2022/08/12 03:38:10;;;;;;;15.32;13.50;;;16.50;99.90;;;;;;4967774;28;20108;-49
2022/08/12 04:00:33;;;;;;;16.17;14.60;;;16.40;99.90;;;;;;4979929;28;20048;-49
2022/08/12 04:03:00;;;;;;;19.65;14.88;;;16.40;99.90;;;;;;4965863;28;20167;-51
2022/08/12 04:05:31;;;;;;;15.98;14.27;;;16.40;99.90;;;;;;4967221;28;20052;-55
2022/08/12 04:07:58;;;;;;;15.48;13.98;;;16.40;99.90;;;;;;4957091;28;20054;-51
2022/08/12 04:13:15;;;;;;;16.20;14.63;;;16.40;99.90;;;;;;4980337;28;20112;-49
2022/08/12 04:13:24;;;;;;;15.73;14.10;;;16.30;99.90;;;;;;4976766;28;20138;-51
2022/08/12 04:15:50;;;;;;;16.13;14.45;;;16.30;99.90;;;;;;4949048;28;20105;-51
2022/08/12 04:18:16;;;;;;;17.42;15.40;;;16.30;99.90;;;;;;4962679;28;20054;-53
2022/08/12 04:20:48;;;;;;;17.10;13.90;;;16.30;99.90;;;;;;5016059;28;20101;-52
2022/08/12 04:23:16;;;;;;;17.38;15.73;;;16.40;99.90;;;;;;4986719;28;20112;-50
2022/08/12 04:25:42;;;;;;;18.25;14.57;;;16.40;99.90;;;;;;4970651;28;20035;-50
2022/08/12 04:28:10;;;;;;;16.00;14.30;;;16.30;99.90;;;;;;4987482;28;20443;-53
2022/08/12 04:30:36;;;;;;;16.83;15.25;;;16.40;99.90;;;;;;4967148;28;20153;-51
2022/08/12 04:33:03;;;;;;;16.13;14.50;;;16.40;99.90;;;;;;4975979;28;20058;-49
2022/08/12 04:35:30;;;;;;;16.88;14.60;;;16.40;99.90;;;;;;4961498;28;20047;-53
2022/08/12 04:37:57;;;;;;;15.38;13.85;;;16.40;99.90;;;;;;4992655;28;20401;-56
2022/08/12 04:40:35;;;;;;;19.35;14.90;;;16.40;99.90;;;;;;4965936;28;20108;-53
2022/08/12 04:43:01;;;;;;;16.60;14.55;;;16.40;99.90;;;;;;5010244;28;20104;-51
2022/08/12 04:45:28;;;;;;;16.35;14.65;;;16.40;99.90;;;;;;5014583;28;20053;-51
2022/08/12 04:47:55;;;;;;;17.73;15.90;;;16.30;99.90;;;;;;5018772;28;20119;-51
2022/08/12 04:50:21;;;;;;;16.75;15.05;;;16.30;99.90;;;;;;5017134;28;20147;-52
2022/08/12 04:52:48;;;;;;;17.10;15.35;;;16.30;99.90;;;;;;5015588;28;20072;-50
2022/08/12 04:55:15;;;;;;;17.83;16.08;;;16.30;99.90;;;;;;5013385;28;20053;-49
2022/08/12 04:57:42;;;;;;;17.08;15.15;;;16.40;99.90;;;;;;5010808;28;20148;-51
2022/08/12 05:00:12;;;;;;;18.40;14.57;;;16.40;99.90;;;;;;5013303;28;20146;-48
2022/08/12 05:02:38;;;;;;;17.23;15.55;;;16.50;99.90;;;;;;5014492;28;20062;-49
2022/08/12 05:05:07;;;;;;;15.90;14.20;;;16.80;99.90;;;;;;5019047;28;21250;-48
2022/08/12 05:07:34;;;;;;;15.60;13.32;;;17.60;99.90;;;;;;5006178;28;20087;-50
2022/08/12 05:10:01;;;;;;;14.93;12.95;;;18.70;99.90;;;;;;5017464;28;20049;-53
2022/08/12 05:12:32;;;;;;;13.38;12.10;;;19.90;99.90;;;;;;5010115;28;20045;-52
2022/08/12 05:14:59;;;;;;;13.80;12.40;;;20.90;99.90;;;;;;5008442;28;20109;-50
2022/08/12 05:17:25;;;;;;;13.43;11.32;;;21.80;99.90;;;;;;5005470;28;20060;-50
2022/08/12 05:19:51;;;;;;;11.90;10.80;;;22.60;99.90;;;;;;5010443;28;20041;-51
2022/08/12 05:22:17;;;;;;;11.50;10.25;;;23.60;99.90;;;;;;5015997;28;20136;-48
2022/08/12 05:24:43;;;;;;;11.23;10.07;;;24.30;99.90;;;;;;5018149;28;20593;-52
2022/08/12 05:27:10;;;;;;;11.07;9.38;;;25.10;99.90;;;;;;5022496;28;20399;-51
2022/08/12 05:29:36;;;;;;;11.25;10.02;;;25.80;99.90;;;;;;5022004;28;20626;-52
2022/08/12 05:32:04;;;;;;;10.40;9.40;;;26.30;99.90;;;;;;5010823;28;20695;-52
2022/08/12 05:34:33;;;;;;;10.18;9.32;;;26.90;99.90;;;;;;5021663;28;20084;-50
2022/08/12 05:37:00;;;;;;;11.63;9.07;;;27.40;99.60;;;;;;5023351;28;20116;-51
2022/08/12 05:39:26;;;;;;;10.73;8.90;;;28.10;99.20;;;;;;5023804;28;20057;-50
2022/08/12 05:41:52;;;;;;;10.98;8.57;;;28.70;98.20;;;;;;4978783;28;20061;-52
2022/08/12 05:44:18;;;;;;;9.40;8.40;;;28.90;97.30;;;;;;4961037;28;20062;-52
2022/08/12 05:46:44;;;;;;;8.98;8.13;;;29.10;96.40;;;;;;4959714;28;20050;-54
2022/08/12 05:49:10;;;;;;;12.10;9.23;;;29.40;96.10;;;;;;5015071;28;20051;-50
2022/08/12 05:51:37;;;;;;;8.73;7.90;;;29.90;95.20;;;;;;4961330;28;20086;-54
2022/08/12 05:54:04;;;;;;;8.50;7.22;;;30.10;94.60;;;;;;4960726;28;20051;-52
2022/08/12 05:56:34;;;;;;;10.48;7.40;;;30.60;93.60;;;;;;4960108;28;20429;-53
2022/08/12 05:59:02;;;;;;;9.05;8.07;;;30.90;92.90;;;;;;4960716;28;20050;-52
2022/08/12 06:01:29;;;;;;;9.48;8.57;;;31.30;93.10;;;;;;4958946;28;20054;-55
2022/08/12 06:03:56;;;;;;;10.57;7.88;;;31.90;92.10;;;;;;4953954;28;20482;-54
2022/08/12 06:06:28;;;;;;;9.25;8.30;;;32.00;91.90;;;;;;4961110;28;20075;-53
2022/08/12 06:08:54;;;;;;;8.63;7.82;;;32.40;91.60;;;;;;4961561;28;20704;-55
2022/08/12 06:11:22;;;;;;;7.35;6.63;;;32.60;91.10;;;;;;4961046;28;20050;-52
2022/08/12 06:13:49;;;;;;;9.82;6.85;;;32.40;90.60;;;;;;4961383;28;20051;-54
2022/08/12 06:16:19;;;;;;;8.18;7.35;;;32.80;90.50;;;;;;4956649;28;21174;-54
2022/08/12 06:18:45;;;;;;;7.85;7.20;;;32.70;89.10;;;;;;4957771;28;20397;-52
2022/08/12 06:21:14;;;;;;;8.35;7.55;;;33.10;90.10;;;;;;4961579;28;20051;-55
2022/08/12 06:23:42;;;;;;;9.20;7.35;;;33.60;89.30;;;;;;4958670;28;20054;-53
2022/08/12 06:26:11;;;;;;;11.55;7.25;;;33.60;87.40;;;;;;4959210;28;20050;-56
2022/08/12 06:28:44;;;;;;;10.60;6.78;;;34.00;87.70;;;;;;4990216;28;20062;-53
2022/08/12 06:31:15;;;;;;;10.27;6.75;;;34.10;84.70;;;;;;4960597;28;20047;-56
2022/08/12 06:33:46;;;;;;;9.23;7.30;;;34.10;85.20;;;;;;4960216;28;20126;-55
2022/08/12 06:36:17;;;;;;;8.98;7.18;;;34.30;84.90;;;;;;4961197;28;20126;-54
2022/08/12 06:38:45;;;;;;;6.90;6.30;;;34.80;84.60;;;;;;4963923;28;20047;-56
2022/08/12 06:43:56;;;;;;;7.25;6.55;;;34.60;83.70;;;;;;4962851;28;20062;-57
2022/08/12 06:46:28;;;;;;;6.30;5.70;;;34.90;83.90;;;;;;4959517;28;20184;-53
2022/08/12 06:48:57;;;;;;;12.27;6.63;;;34.90;82.30;;;;;;4953201;28;20151;-52
2022/08/12 06:51:29;;;;;;;7.40;6.35;;;34.70;83.80;;;;;;4963225;28;20107;-52
2022/08/12 06:53:55;;;;;;;6.63;5.97;;;34.90;82.00;;;;;;4946647;28;20085;-56
2022/08/12 06:56:22;;;;;;;10.75;6.40;;;34.70;82.20;;;;;;4958913;28;20057;-56
2022/08/12 06:58:48;;;;;;;6.40;5.80;;;34.90;82.10;;;;;;4956437;28;20097;-56
2022/08/12 07:01:16;;;;;;;6.10;5.57;;;34.90;81.40;;;;;;4959444;28;20484;-55
2022/08/12 07:03:42;;;;;;;5.95;5.35;;;34.50;80.60;;;;;;4928516;28;20379;-56
2022/08/12 07:06:10;;;;;;;7.30;5.43;;;34.50;81.70;;;;;;4952496;28;20104;-56
2022/08/12 07:08:37;;;;;;;10.70;6.18;;;34.20;81.20;;;;;;4963970;28;20061;-54
2022/08/12 07:11:06;;;;;;;7.07;5.80;;;33.70;81.90;;;;;;4960232;28;20106;-53
2022/08/12 07:13:37;;;;;;;6.45;5.65;;;32.60;83.90;;;;;;5001040;28;20070;-54
2022/08/12 07:16:04;;;;;;;8.77;5.70;;;32.10;84.60;;;;;;4961056;28;20047;-56
2022/08/12 07:18:32;;;;;;;9.77;5.40;;;31.40;85.50;;;;;;4955240;28;20050;-54
2022/08/12 07:21:01;;;;;;;10.43;5.30;;;31.30;84.70;;;;;;4974904;28;20051;-55
2022/08/12 07:23:29;;;;;;;8.98;5.47;;;31.10;85.00;;;;;;4963729;28;20055;-58
2022/08/12 07:26:00;;;;;;;8.60;5.85;;;30.90;86.00;;;;;;4963352;28;20077;-56
2022/08/12 07:28:34;;;;;;;6.63;5.57;;;30.60;85.80;;;;;;4964972;28;20058;-55
2022/08/12 07:31:07;;;;;;;6.78;5.20;;;30.30;86.40;;;;;;4953114;28;20098;-56
2022/08/12 07:33:37;;;;;;;9.63;5.38;;;29.90;86.60;;;;;;4963941;28;20051;-54
2022/08/12 07:36:05;;;;;;;7.45;5.40;;;29.70;87.10;;;;;;4972044;28;20134;-56
2022/08/12 07:38:37;;;;;;;9.95;6.47;;;29.50;87.80;;;;;;4967113;28;20055;-55
2022/08/12 07:41:16;;;;;;;6.25;4.90;;;29.50;88.30;;;;;;4963572;28;20047;-57
2022/08/12 07:43:50;;;;;;;9.30;5.65;;;29.30;89.20;;;;;;4962800;28;20055;-56
2022/08/12 07:46:19;;;;;;;6.50;4.38;;;28.90;89.60;;;;;;4964557;28;20824;-56
2022/08/12 07:48:51;;;;;;;6.10;5.00;;;28.90;89.50;;;;;;4961197;28;20062;-56
2022/08/12 07:51:18;;;;;;;9.40;5.72;;;28.90;89.70;;;;;;4987022;28;20051;-56
2022/08/12 07:53:45;;;;;;;10.07;5.10;;;28.90;89.80;;;;;;4964054;28;20413;-56
2022/08/12 07:56:11;;;;;;;5.80;4.30;;;28.90;89.90;;;;;;4962983;28;20885;-56
2022/08/12 07:58:39;;;;;;;6.05;5.03;;;29.00;90.20;;;;;;4962281;28;20047;-56
2022/08/12 08:01:08;;;;;;;5.88;4.90;;;28.90;89.90;;;;;;4958925;28;20050;-56
2022/08/12 08:03:34;;;;;;;7.68;4.57;;;29.00;89.80;;;;;;4963753;28;20093;-55
2022/08/12 08:05:59;;;;;;;9.63;4.88;;;28.90;90.30;;;;;;4961525;28;20664;-58
2022/08/12 08:08:27;;;;;;;7.07;5.00;;;29.10;90.40;;;;;;4963918;28;20524;-57
2022/08/12 08:13:45;;;;;;;5.43;4.18;;;29.00;90.10;;;;;;4957665;28;20112;-57
2022/08/12 08:16:14;;;;;;;7.18;4.55;;;28.90;90.20;;;;;;4977901;28;20046;-57
2022/08/12 08:18:41;;;;;;;7.88;4.25;;;29.10;89.60;;;;;;4949342;28;20055;-54
2022/08/12 08:21:09;;;;;;;6.40;4.25;;;29.00;89.60;;;;;;4965227;28;20124;-55
2022/08/12 08:26:21;;;;;;;8.90;4.63;;;29.00;89.60;;;;;;4943868;28;20565;-54
2022/08/12 08:28:47;;;;;;;7.97;4.25;;;28.90;88.20;;;;;;4945771;28;20871;-56
2022/08/12 08:31:13;;;;;;;8.32;4.22;;;28.80;88.50;;;;;;4961135;28;20050;-57
2022/08/12 08:33:43;;;;;;;6.63;3.60;;;28.80;90.10;;;;;;4949686;28;20051;-58
2022/08/12 08:36:09;;;;;;;7.93;4.05;;;28.90;90.00;;;;;;4962971;28;20156;-57
2022/08/12 08:38:35;;;;;;;7.35;3.65;;;29.00;89.70;;;;;;4963228;28;20163;-57
2022/08/12 08:44:00;;;;;;;7.07;3.60;;;29.00;88.50;;;;;;4964477;28;20058;-57
2022/08/12 08:46:26;;;;;;;6.82;4.40;;;29.10;89.20;;;;;;4964814;28;20158;-58
2022/08/12 08:48:53;;;;;;;7.47;4.32;;;29.10;88.60;;;;;;4953397;28;20088;-58
2022/08/12 08:51:25;;;;;;;4.13;3.20;;;29.10;88.10;;;;;;4963555;28;20562;-59
2022/08/12 08:53:52;;;;;;;7.28;3.75;;;29.10;89.00;;;;;;4952963;28;20055;-59
2022/08/12 08:56:19;;;;;;;5.95;3.63;;;29.20;88.20;;;;;;4953227;28;20145;-58
2022/08/12 08:58:48;;;;;;;3.65;3.35;;;29.30;88.60;;;;;;4964687;28;20054;-58
2022/08/12 09:01:19;;;;;;;9.18;3.83;;;29.30;88.50;;;;;;4963815;28;20054;-57
2022/08/12 09:03:46;;;;;;;6.78;3.40;;;29.40;87.50;;;;;;4944613;28;20105;-57
2022/08/12 09:06:13;;;;;;;6.65;3.92;;;29.30;87.70;;;;;;4964100;28;20050;-57
2022/08/12 09:08:43;;;;;;;6.15;3.90;;;29.20;87.00;;;;;;4963818;28;20050;-58
2022/08/12 09:14:06;;;;;;;9.00;4.93;;;29.10;87.10;;;;;;4979697;28;20122;-58
2022/08/12 09:16:39;;;;;;;5.53;3.72;;;29.10;87.40;;;;;;4957427;28;20047;-58
2022/08/12 09:19:09;;;;;;;4.05;3.40;;;29.20;89.40;;;;;;4968262;28;20401;-57
2022/08/12 09:21:35;;;;;;;9.77;3.40;;;29.40;87.20;;;;;;5011944;28;20044;-57
2022/08/12 09:24:02;;;;;;;5.45;3.40;;;29.50;88.20;;;;;;4999733;28;20128;-58
2022/08/12 09:26:30;;;;;;;7.30;3.50;;;29.60;87.30;;;;;;4998669;28;20105;-58
2022/08/12 09:28:57;;;;;;;6.13;3.60;;;29.60;87.30;;;;;;4985206;28;20173;-58
2022/08/12 09:31:24;;;;;;;7.10;4.03;;;29.60;85.50;;;;;;5004361;28;20069;-58
2022/08/12 09:33:50;;;;;;;5.38;3.13;;;29.60;85.70;;;;;;4996372;28;20046;-59
2022/08/12 09:36:20;;;;;;;7.55;3.75;;;29.70;86.70;;;;;;4962822;28;20059;-58
2022/08/12 09:38:46;;;;;;;5.40;3.97;;;29.70;86.00;;;;;;4958249;28;20768;-59
2022/08/12 09:41:15;;;;;;;8.95;3.42;;;29.90;86.40;;;;;;4950847;28;20161;-58
2022/08/12 09:46:32;;;;;;;5.35;3.42;;;30.00;83.90;;;;;;4958505;28;20051;-58
2022/08/12 09:48:58;;;;;;;8.43;3.55;;;30.00;84.20;;;;;;4969826;28;20043;-58
2022/08/12 09:51:30;;;;;;;7.07;3.80;;;30.10;83.70;;;;;;4965431;28;20054;-59
2022/08/12 09:53:57;;;;;;;8.07;3.22;;;30.30;84.80;;;;;;4958208;28;20133;-58
2022/08/12 09:56:22;;;;;;;4.68;3.10;;;30.40;83.90;;;;;;4933482;28;20059;-58
2022/08/12 09:58:49;;;;;;;6.53;3.10;;;30.50;83.70;;;;;;4961315;28;20062;-58
2022/08/12 10:01:18;;;;;;;6.30;3.25;;;30.40;82.40;;;;;;4956976;28;20061;-58
2022/08/12 10:03:44;;;;;;;7.40;3.35;;;30.40;82.00;;;;;;4956253;28;20051;-58
2022/08/12 10:06:10;;;;;;;6.63;3.50;;;30.40;82.80;;;;;;4970590;28;20524;-59
2022/08/12 10:08:37;;;;;;;3.78;3.03;;;30.40;81.30;;;;;;4963431;28;20059;-58
2022/08/12 10:13:53;;;;;;;5.28;3.30;;;30.60;82.20;;;;;;4936326;28;20157;-59
2022/08/12 10:16:27;;;;;;;5.07;3.22;;;30.70;80.90;;;;;;4959831;28;20464;-58
2022/08/12 10:19:06;;;;;;;5.57;3.35;;;30.70;79.80;;;;;;4956689;28;20046;-58
2022/08/12 10:21:39;;;;;;;8.20;3.65;;;30.60;79.10;;;;;;4950705;28;20046;-58
2022/08/12 10:24:08;;;;;;;4.68;3.13;;;30.70;79.70;;;;;;4961467;28;20051;-59
2022/08/12 10:29:37;;;;;;;5.32;3.08;;;30.90;79.10;;;;;;4962894;28;20111;-63
2022/08/12 10:32:06;;;;;;;12.00;3.72;;;30.90;79.40;;;;;;4961321;28;20055;-60
2022/08/12 10:34:35;;;;;;;10.25;3.20;;;30.90;79.30;;;;;;4961356;28;20089;-59
2022/08/12 10:37:03;;;;;;;4.45;3.28;;;31.10;80.00;;;;;;4962862;28;20050;-59
2022/08/12 10:39:35;;;;;;;6.55;4.22;;;31.10;78.80;;;;;;4962324;28;20053;-59
2022/08/12 10:45:06;;;;;;;5.35;3.30;;;31.30;78.40;;;;;;4965545;28;20059;-59
2022/08/12 10:47:34;;;;;;;6.20;3.05;;;31.30;76.50;;;;;;4983309;28;20053;-59
2022/08/12 10:50:21;;;;;;;4.00;3.30;;;31.30;75.70;;;;;;5045514;28;20492;-59
2022/08/12 10:52:47;;;;;;;3.95;3.13;;;31.30;76.00;;;;;;5044895;28;20110;-58
2022/08/12 10:55:12;;;;;;;7.38;3.17;;;31.30;76.10;;;;;;5013320;28;20551;-59
2022/08/12 10:57:38;;;;;;;4.35;3.17;;;31.30;76.60;;;;;;4957330;28;20172;-59
2022/08/12 11:00:06;;;;;;;5.80;3.08;;;31.30;77.40;;;;;;4960059;28;20482;-58
2022/08/12 11:02:31;;;;;;;6.13;2.90;;;31.30;76.00;;;;;;4949674;28;20078;-60
2022/08/12 11:04:58;;;;;;;8.60;2.72;;;31.30;75.80;;;;;;4955752;28;20125;-59
2022/08/12 11:07:25;;;;;;;4.70;2.72;;;31.30;76.20;;;;;;4954910;28;20416;-59
2022/08/12 11:09:51;;;;;;;6.00;3.05;;;31.30;74.50;;;;;;4957623;28;20112;-59
2022/08/12 11:12:18;;;;;;;4.10;2.85;;;31.20;74.40;;;;;;4982995;28;20065;-59
2022/08/12 11:14:43;;;;;;;6.13;2.85;;;31.30;73.70;;;;;;4942114;28;20417;-59
2022/08/12 11:17:13;;;;;;;4.70;3.08;;;31.30;74.20;;;;;;4941375;28;20065;-59
2022/08/12 11:19:42;;;;;;;4.68;2.60;;;31.30;73.30;;;;;;4943194;28;20052;-59
2022/08/12 11:22:10;;;;;;;4.22;2.85;;;31.40;72.90;;;;;;4946814;28;20490;-59
2022/08/12 11:24:39;;;;;;;4.93;2.63;;;31.30;72.90;;;;;;4946958;28;20169;-59
2022/08/12 11:27:07;;;;;;;4.45;2.90;;;31.30;72.70;;;;;;4972433;28;20052;-59
2022/08/12 11:29:33;;;;;;;4.03;2.50;;;31.30;73.10;;;;;;4942766;28;20047;-60
2022/08/12 11:31:59;;;;;;;6.28;2.90;;;31.20;72.90;;;;;;4940496;28;20047;-59
2022/08/12 11:34:25;;;;;;;4.97;2.60;;;31.20;74.10;;;;;;4956590;28;20612;-59
2022/08/12 11:37:06;;;;;;;3.00;2.70;;;31.30;73.30;;;;;;4977092;28;20413;-59
2022/08/12 11:39:32;;;;;;;5.40;2.83;;;31.30;73.00;;;;;;4944515;28;20055;-59
2022/08/12 11:41:59;;;;;;;4.63;2.60;;;31.40;72.80;;;;;;4946087;28;20062;-59
2022/08/12 11:44:30;;;;;;;5.30;2.80;;;31.50;73.60;;;;;;4962568;28;20047;-59
2022/08/12 11:46:57;;;;;;;6.47;2.50;;;31.40;71.40;;;;;;4952869;28;20095;-59
2022/08/12 11:49:27;;;;;;;6.75;2.95;;;31.40;72.50;;;;;;4951076;28;20059;-59
2022/08/12 11:51:56;;;;;;;6.70;2.60;;;31.40;71.90;;;;;;4944854;28;20055;-59
2022/08/12 11:54:22;;;;;;;6.95;2.70;;;31.50;72.50;;;;;;4940139;29;20676;-59
2022/08/12 11:56:54;;;;;;;3.72;2.58;;;31.40;72.40;;;;;;4955765;28;20059;-59
2022/08/12 11:59:34;;;;;;;2.83;2.58;;;31.40;71.90;;;;;;4938481;28;20055;-59
2022/08/12 12:02:01;;;;;;;3.10;2.80;;;31.30;71.40;;;;;;4946635;28;20047;-59
2022/08/12 12:04:27;;;;;;;5.82;2.58;;;31.30;71.00;;;;;;4953211;28;20124;-59
2022/08/12 12:06:53;;;;;;;4.25;2.70;;;31.30;71.10;;;;;;4946806;28;20055;-59
2022/08/12 12:09:19;;;;;;;5.95;2.80;;;31.30;72.20;;;;;;4945461;28;20052;-59
2022/08/12 12:11:45;;;;;;;7.80;2.70;;;31.30;73.00;;;;;;4956227;28;20052;-59
2022/08/12 12:14:11;;;;;;;6.20;3.03;;;31.30;72.80;;;;;;4982089;28;20062;-58
2022/08/12 12:16:37;;;;;;;5.45;2.60;;;31.30;72.30;;;;;;4958071;28;20047;-59
2022/08/12 12:19:04;;;;;;;4.97;2.80;;;31.40;74.20;;;;;;4940376;28;20046;-59
2022/08/12 12:21:30;;;;;;;6.95;2.95;;;31.40;72.00;;;;;;4963221;28;20047;-59
2022/08/12 12:24:01;;;;;;;5.13;2.88;;;31.30;71.60;;;;;;4954602;28;20051;-59
2022/08/12 12:26:27;;;;;;;7.75;3.40;;;31.30;71.60;;;;;;4961837;28;20090;-59
2022/08/12 12:28:53;;;;;;;6.30;2.80;;;31.30;71.70;;;;;;4962425;28;20093;-59
2022/08/12 12:31:19;;;;;;;4.70;2.75;;;31.30;72.20;;;;;;4961121;28;20058;-59
2022/08/12 12:33:45;;;;;;;4.93;2.63;;;31.30;71.50;;;;;;4956623;28;20054;-59
2022/08/12 12:36:12;;;;;;;8.00;2.85;;;31.30;71.30;;;;;;4963679;28;20047;-59
2022/08/12 12:38:38;;;;;;;6.25;3.00;;;31.40;72.10;;;;;;4961958;28;20475;-59
2022/08/12 12:41:04;;;;;;;3.97;2.60;;;31.40;72.20;;;;;;4955810;28;20043;-59
2022/08/12 12:43:30;;;;;;;6.80;3.13;;;31.40;72.00;;;;;;4949582;28;20137;-59
2022/08/12 12:45:57;;;;;;;5.32;3.00;;;31.50;71.70;;;;;;4957412;28;21004;-59
2022/08/12 12:48:23;;;;;;;6.45;2.72;;;31.30;70.50;;;;;;4962611;28;20054;-59
2022/08/12 12:53:48;;;;;;;6.38;3.00;;;31.50;72.10;;;;;;4958788;28;20051;-60
2022/08/12 12:56:20;;;;;;;5.72;2.78;;;31.50;73.10;;;;;;4957924;28;20482;-59
2022/08/12 12:58:53;;;;;;;6.70;2.85;;;31.40;72.90;;;;;;4958939;28;20535;-59
2022/08/12 13:01:24;;;;;;;7.88;2.80;;;31.40;71.60;;;;;;4959992;28;20158;-60
2022/08/12 13:03:53;;;;;;;5.60;2.93;;;31.30;72.90;;;;;;4960712;28;20046;-58
2022/08/12 13:06:24;;;;;;;4.85;2.70;;;31.40;72.20;;;;;;4960672;28;20487;-57
2022/08/12 13:08:52;;;;;;;5.63;2.47;;;31.40;73.20;;;;;;4954137;28;20051;-57
2022/08/12 13:11:20;;;;;;;5.18;2.72;;;31.40;71.40;;;;;;4984454;28;20066;-57
2022/08/12 13:13:51;;;;;;;5.57;2.60;;;31.40;70.90;;;;;;5015065;28;20108;-57
2022/08/12 13:16:22;;;;;;;5.82;2.67;;;31.30;70.30;;;;;;4992714;28;20093;-57
2022/08/12 13:18:49;;;;;;;5.40;2.50;;;31.30;69.90;;;;;;4982721;28;20404;-57
2022/08/12 13:21:16;;;;;;;3.58;2.70;;;31.40;71.50;;;;;;5004398;28;20129;-57
2022/08/12 13:23:46;;;;;;;5.78;2.47;;;31.30;70.80;;;;;;4977214;28;20106;-58
2022/08/12 13:26:19;;;;;;;3.13;2.40;;;31.30;70.60;;;;;;4958935;28;20150;-57
2022/08/12 13:28:49;;;;;;;5.20;2.63;;;31.20;69.80;;;;;;4995268;28;20151;-57
2022/08/12 13:31:15;;;;;;;5.80;2.50;;;31.30;71.30;;;;;;4977453;28;20145;-60
2022/08/12 13:33:41;;;;;;;4.40;2.58;;;31.30;71.00;;;;;;4994829;28;20159;-57
2022/08/12 13:36:09;;;;;;;3.10;2.63;;;31.30;69.70;;;;;;4961427;28;20054;-57
2022/08/12 13:38:39;;;;;;;5.15;3.25;;;31.30;70.70;;;;;;4955255;28;20137;-59
2022/08/12 13:41:34;;;;;;;5.53;2.67;;;31.20;70.10;;;;;;4963965;28;20109;-59
2022/08/12 13:44:08;;;;;;;5.55;2.70;;;31.30;71.20;;;;;;4940930;28;20051;-61
2022/08/12 13:46:36;;;;;;;6.57;2.60;;;31.30;71.50;;;;;;4992428;28;20044;-60
2022/08/12 13:49:14;;;;;;;4.00;2.35;;;31.30;72.00;;;;;;4992969;28;20073;-59
2022/08/12 13:51:41;;;;;;;4.65;2.50;;;31.40;71.90;;;;;;4961734;28;20046;-58
2022/08/12 13:54:10;;;;;;;3.22;2.45;;;31.40;71.80;;;;;;4951728;28;20077;-58
2022/08/12 13:56:37;;;;;;;5.20;2.88;;;31.40;70.50;;;;;;4956902;28;20509;-59
2022/08/12 13:59:06;;;;;;;5.07;2.55;;;31.30;70.30;;;;;;4966347;28;20499;-59
2022/08/12 14:01:34;;;;;;;4.30;2.50;;;31.30;69.70;;;;;;4968950;28;20776;-59
2022/08/12 14:04:03;;;;;;;7.43;2.80;;;31.20;71.80;;;;;;4966767;28;20109;-59
2022/08/12 14:06:29;;;;;;;4.55;2.35;;;31.20;71.60;;;;;;4977930;28;20133;-61
2022/08/12 14:08:55;;;;;;;3.17;2.50;;;31.10;71.20;;;;;;4994963;28;20446;-60
2022/08/12 14:11:21;;;;;;;4.35;2.38;;;31.20;71.10;;;;;;4959242;28;20058;-60
2022/08/12 14:13:48;;;;;;;3.47;2.70;;;31.20;71.00;;;;;;4960058;28;20055;-59
2022/08/12 14:16:17;;;;;;;3.47;2.53;;;31.30;71.10;;;;;;4949432;28;20407;-60
2022/08/12 14:18:43;;;;;;;5.68;2.50;;;31.30;71.60;;;;;;4960654;28;20050;-60
2022/08/12 14:21:13;;;;;;;5.68;2.45;;;31.30;71.10;;;;;;4955928;28;20055;-60
2022/08/12 14:23:43;;;;;;;4.82;2.55;;;31.30;70.80;;;;;;4970649;28;20409;-60
2022/08/12 14:26:16;;;;;;;6.38;2.17;;;31.30;70.40;;;;;;4967485;28;20059;-60
2022/08/12 14:28:43;;;;;;;4.45;2.50;;;31.30;72.90;;;;;;5006070;28;20178;-60
2022/08/12 14:31:11;;;;;;;3.10;2.47;;;31.20;70.50;;;;;;4955561;28;20137;-60
2022/08/12 14:33:40;;;;;;;4.57;2.75;;;31.20;70.50;;;;;;4987206;28;20141;-60
2022/08/12 14:36:08;;;;;;;4.70;2.40;;;31.20;69.90;;;;;;4960939;28;20050;-60
2022/08/12 14:38:39;;;;;;;6.50;2.50;;;31.20;70.30;;;;;;4961220;28;20047;-60
2022/08/12 14:41:07;;;;;;;4.38;2.38;;;31.10;71.10;;;;;;4997488;28;20040;-60
2022/08/12 14:43:36;;;;;;;5.53;2.53;;;31.10;69.90;;;;;;4972664;28;20062;-59